sensor_id;sensor_type;location;lat;lon;timestamp;pressure;altitude;pressure_sealevel;temperature
78582;BMP280;67878;46.242;5.974;2023-03-01T00:01:38;95732.22;;;21.17
78582;BMP280;67878;46.242;5.974;2023-03-01T00:04:04;95733.47;;;21.16
78582;BMP280;67878;46.242;5.974;2023-03-01T00:06:35;95729.97;;;21.16
78582;BMP280;67878;46.242;5.974;2023-03-01T00:09:04;95728.75;;;21.17
78582;BMP280;67878;46.242;5.974;2023-03-01T00:11:34;95732.00;;;21.15
78582;BMP280;67878;46.242;5.974;2023-03-01T00:14:03;95723.78;;;21.15
78582;BMP280;67878;46.242;5.974;2023-03-01T00:16:37;95717.59;;;21.15
78582;BMP280;67878;46.242;5.974;2023-03-01T00:19:14;95721.53;;;21.14
78582;BMP280;67878;46.242;5.974;2023-03-01T00:21:46;95723.50;;;21.13
78582;BMP280;67878;46.242;5.974;2023-03-01T00:24:20;95719.78;;;21.11
78582;BMP280;67878;46.242;5.974;2023-03-01T00:26:47;95715.59;;;21.10
78582;BMP280;67878;46.242;5.974;2023-03-01T00:29:12;95725.75;;;21.09
78582;BMP280;67878;46.242;5.974;2023-03-01T00:31:38;95725.75;;;21.09
78582;BMP280;67878;46.242;5.974;2023-03-01T00:34:04;95725.03;;;21.09
78582;BMP280;67878;46.242;5.974;2023-03-01T00:36:39;95720.28;;;21.09
78582;BMP280;67878;46.242;5.974;2023-03-01T00:39:09;95717.34;;;21.07
78582;BMP280;67878;46.242;5.974;2023-03-01T00:41:35;95718.28;;;21.04
78582;BMP280;67878;46.242;5.974;2023-03-01T00:44:01;95719.03;;;21.05
78582;BMP280;67878;46.242;5.974;2023-03-01T00:46:27;95721.53;;;21.03
78582;BMP280;67878;46.242;5.974;2023-03-01T00:48:53;95723.25;;;21.06
78582;BMP280;67878;46.242;5.974;2023-03-01T00:51:23;95724.78;;;21.07
78582;BMP280;67878;46.242;5.974;2023-03-01T00:53:57;95722.25;;;21.03
78582;BMP280;67878;46.242;5.974;2023-03-01T00:56:27;95734.19;;;21.00
78582;BMP280;67878;46.242;5.974;2023-03-01T00:58:56;95726.00;;;21.00
78582;BMP280;67878;46.242;5.974;2023-03-01T01:01:29;95722.50;;;20.99
78582;BMP280;67878;46.242;5.974;2023-03-01T01:04:07;95714.81;;;20.98
78582;BMP280;67878;46.242;5.974;2023-03-01T01:06:46;95712.09;;;20.98
78582;BMP280;67878;46.242;5.974;2023-03-01T01:09:20;95707.13;;;20.96
78582;BMP280;67878;46.242;5.974;2023-03-01T01:11:50;95706.13;;;20.94
78582;BMP280;67878;46.242;5.974;2023-03-01T01:14:19;95703.16;;;20.97
78582;BMP280;67878;46.242;5.974;2023-03-01T01:16:48;95697.94;;;20.94
78582;BMP280;67878;46.242;5.974;2023-03-01T01:19:21;95689.25;;;20.90
78582;BMP280;67878;46.242;5.974;2023-03-01T01:21:53;95698.66;;;20.94
78582;BMP280;67878;46.242;5.974;2023-03-01T01:24:22;95701.16;;;20.92
78582;BMP280;67878;46.242;5.974;2023-03-01T01:26:49;95695.94;;;20.89
78582;BMP280;67878;46.242;5.974;2023-03-01T01:29:14;95695.94;;;20.89
78582;BMP280;67878;46.242;5.974;2023-03-01T01:31:41;95699.16;;;20.87
78582;BMP280;67878;46.242;5.974;2023-03-01T01:34:08;95686.22;;;20.88
78582;BMP280;67878;46.242;5.974;2023-03-01T01:36:39;95686.75;;;20.86
78582;BMP280;67878;46.242;5.974;2023-03-01T01:39:11;95694.22;;;20.86
78582;BMP280;67878;46.242;5.974;2023-03-01T01:41:47;95682.50;;;20.85
78582;BMP280;67878;46.242;5.974;2023-03-01T01:44:19;95681.78;;;20.85
78582;BMP280;67878;46.242;5.974;2023-03-01T01:47:00;95681.50;;;20.83
78582;BMP280;67878;46.242;5.974;2023-03-01T01:49:58;95680.28;;;20.84
78582;BMP280;67878;46.242;5.974;2023-03-01T01:52:35;95675.28;;;20.82
78582;BMP280;67878;46.242;5.974;2023-03-01T01:55:11;95677.78;;;20.80
78582;BMP280;67878;46.242;5.974;2023-03-01T01:57:48;95672.56;;;20.82
78582;BMP280;67878;46.242;5.974;2023-03-01T02:00:30;95664.91;;;20.86
78582;BMP280;67878;46.242;5.974;2023-03-01T02:03:00;95663.63;;;20.82
78582;BMP280;67878;46.242;5.974;2023-03-01T02:08:18;95645.72;;;20.75
78582;BMP280;67878;46.242;5.974;2023-03-01T02:10:51;95641.50;;;20.74
78582;BMP280;67878;46.242;5.974;2023-03-01T02:13:20;95640.06;;;20.73
78582;BMP280;67878;46.242;5.974;2023-03-01T02:15:48;95633.09;;;20.72
78582;BMP280;67878;46.242;5.974;2023-03-01T02:18:20;95629.13;;;20.73
78582;BMP280;67878;46.242;5.974;2023-03-01T02:23:30;95631.59;;;20.71
78582;BMP280;67878;46.242;5.974;2023-03-01T02:26:21;95624.41;;;20.68
78582;BMP280;67878;46.242;5.974;2023-03-01T02:28:52;95629.59;;;20.66
78582;BMP280;67878;46.242;5.974;2023-03-01T02:31:19;95634.31;;;20.65
78582;BMP280;67878;46.242;5.974;2023-03-01T02:34:04;95621.91;;;20.64
78582;BMP280;67878;46.242;5.974;2023-03-01T02:36:52;95620.41;;;20.63
78582;BMP280;67878;46.242;5.974;2023-03-01T02:39:26;95612.22;;;20.63
78582;BMP280;67878;46.242;5.974;2023-03-01T02:41:57;95606.03;;;20.63
78582;BMP280;67878;46.242;5.974;2023-03-01T02:44:30;95607.25;;;20.62
78582;BMP280;67878;46.242;5.974;2023-03-01T02:47:02;95614.22;;;20.63
78582;BMP280;67878;46.242;5.974;2023-03-01T02:49:33;95607.25;;;20.62
78582;BMP280;67878;46.242;5.974;2023-03-01T02:55:09;95595.56;;;20.61
78582;BMP280;67878;46.242;5.974;2023-03-01T02:57:40;95602.53;;;20.62
78582;BMP280;67878;46.242;5.974;2023-03-01T03:00:09;95594.81;;;20.60
78582;BMP280;67878;46.242;5.974;2023-03-01T03:02:48;95589.38;;;20.55
78582;BMP280;67878;46.242;5.974;2023-03-01T03:05:26;95594.56;;;20.53
78582;BMP280;67878;46.242;5.974;2023-03-01T03:07:52;95588.38;;;20.52
78582;BMP280;67878;46.242;5.974;2023-03-01T03:10:22;95576.72;;;20.52
78582;BMP280;67878;46.242;5.974;2023-03-01T03:12:56;95574.47;;;20.50
78582;BMP280;67878;46.242;5.974;2023-03-01T03:15:23;95573.72;;;20.50
78582;BMP280;67878;46.242;5.974;2023-03-01T03:17:49;95567.50;;;20.49
78582;BMP280;67878;46.242;5.974;2023-03-01T03:20:17;95575.47;;;20.47
78582;BMP280;67878;46.242;5.974;2023-03-01T03:22:50;95579.66;;;20.48
78582;BMP280;67878;46.242;5.974;2023-03-01T03:25:17;95575.47;;;20.47
78582;BMP280;67878;46.242;5.974;2023-03-01T03:27:44;95577.19;;;20.45
78582;BMP280;67878;46.242;5.974;2023-03-01T03:30:12;95572.22;;;20.43
78582;BMP280;67878;46.242;5.974;2023-03-01T03:32:43;95570.75;;;20.42
78582;BMP280;67878;46.242;5.974;2023-03-01T03:35:18;95572.00;;;20.41
78582;BMP280;67878;46.242;5.974;2023-03-01T03:37:44;95572.47;;;20.39
78582;BMP280;67878;46.242;5.974;2023-03-01T03:40:37;95563.78;;;20.41
78582;BMP280;67878;46.242;5.974;2023-03-01T03:43:06;95563.53;;;20.39
78582;BMP280;67878;46.242;5.974;2023-03-01T03:45:31;95571.94;;;20.35
78582;BMP280;67878;46.242;5.974;2023-03-01T03:47:59;95569.00;;;20.33
78582;BMP280;67878;46.242;5.974;2023-03-01T03:50:25;95570.97;;;20.33
78582;BMP280;67878;46.242;5.974;2023-03-01T03:52:50;95568.25;;;20.33
78582;BMP280;67878;46.242;5.974;2023-03-01T03:55:16;95566.28;;;20.33
78582;BMP280;67878;46.242;5.974;2023-03-01T03:57:44;95564.00;;;20.32
78582;BMP280;67878;46.242;5.974;2023-03-01T04:00:11;95551.63;;;20.31
78582;BMP280;67878;46.242;5.974;2023-03-01T04:02:40;95558.81;;;20.28
78582;BMP280;67878;46.242;5.974;2023-03-01T04:05:08;95556.81;;;20.29
78582;BMP280;67878;46.242;5.974;2023-03-01T04:07:35;95559.56;;;20.29
78582;BMP280;67878;46.242;5.974;2023-03-01T04:10:02;95547.41;;;20.30
78582;BMP280;67878;46.242;5.974;2023-03-01T04:12:28;95554.84;;;20.29
78582;BMP280;67878;46.242;5.974;2023-03-01T04:14:54;95558.53;;;20.26
78582;BMP280;67878;46.242;5.974;2023-03-01T04:17:19;95546.41;;;20.27
78582;BMP280;67878;46.242;5.974;2023-03-01T04:19:45;95540.16;;;20.27
78582;BMP280;67878;46.242;5.974;2023-03-01T04:22:14;95547.63;;;20.26
78582;BMP280;67878;46.242;5.974;2023-03-01T04:24:42;95536.47;;;20.24
78582;BMP280;67878;46.242;5.974;2023-03-01T04:27:09;95546.91;;;20.26
78582;BMP280;67878;46.242;5.974;2023-03-01T04:29:34;95553.31;;;20.23
78582;BMP280;67878;46.242;5.974;2023-03-01T04:31:59;95556.06;;;20.23
78582;BMP280;67878;46.242;5.974;2023-03-01T04:34:25;95551.34;;;20.23
78582;BMP280;67878;46.242;5.974;2023-03-01T04:36:52;95551.13;;;20.21
78582;BMP280;67878;46.242;5.974;2023-03-01T04:39:19;95544.41;;;20.22
78582;BMP280;67878;46.242;5.974;2023-03-01T04:41:48;95537.97;;;20.19
78582;BMP280;67878;46.242;5.974;2023-03-01T04:44:19;95535.47;;;20.21
78582;BMP280;67878;46.242;5.974;2023-03-01T04:46:49;95538.69;;;20.20
78582;BMP280;67878;46.242;5.974;2023-03-01T04:49:20;95534.75;;;20.21
78582;BMP280;67878;46.242;5.974;2023-03-01T04:51:49;95531.28;;;20.20
78582;BMP280;67878;46.242;5.974;2023-03-01T04:54:23;95525.81;;;20.20
78582;BMP280;67878;46.242;5.974;2023-03-01T04:56:55;95526.56;;;20.21
78582;BMP280;67878;46.242;5.974;2023-03-01T04:59:21;95519.59;;;20.20
78582;BMP280;67878;46.242;5.974;2023-03-01T05:01:48;95520.34;;;20.20
78582;BMP280;67878;46.242;5.974;2023-03-01T05:04:14;95517.34;;;20.24
78582;BMP280;67878;46.242;5.974;2023-03-01T05:06:39;95513.16;;;20.23
78582;BMP280;67878;46.242;5.974;2023-03-01T05:09:05;95522.56;;;20.22
78582;BMP280;67878;46.242;5.974;2023-03-01T05:11:32;95515.88;;;20.23
78582;BMP280;67878;46.242;5.974;2023-03-01T05:14:07;95527.53;;;20.24
78582;BMP280;67878;46.242;5.974;2023-03-01T05:16:36;95528.28;;;20.24
78582;BMP280;67878;46.242;5.974;2023-03-01T05:19:05;95527.53;;;20.24
78582;BMP280;67878;46.242;5.974;2023-03-01T05:21:39;95525.53;;;20.24
78582;BMP280;67878;46.242;5.974;2023-03-01T05:24:28;95528.53;;;20.26
78582;BMP280;67878;46.242;5.974;2023-03-01T05:27:00;95533.28;;;20.26
78582;BMP280;67878;46.242;5.974;2023-03-01T05:29:29;95531.53;;;20.28
78582;BMP280;67878;46.242;5.974;2023-03-01T05:31:59;95525.31;;;20.28
78582;BMP280;67878;46.242;5.974;2023-03-01T05:34:30;95521.59;;;20.31
78582;BMP280;67878;46.242;5.974;2023-03-01T05:36:56;95530.06;;;20.38
78582;BMP280;67878;46.242;5.974;2023-03-01T05:39:27;95518.13;;;20.36
78582;BMP280;67878;46.242;5.974;2023-03-01T05:42:05;95526.56;;;20.38
78582;BMP280;67878;46.242;5.974;2023-03-01T05:44:34;95524.09;;;20.34
78582;BMP280;67878;46.242;5.974;2023-03-01T05:47:03;95533.72;;;20.35
78582;BMP280;67878;46.242;5.974;2023-03-01T05:49:32;95527.53;;;20.40
78582;BMP280;67878;46.242;5.974;2023-03-01T05:52:04;95527.06;;;20.42
78582;BMP280;67878;46.242;5.974;2023-03-01T05:54:38;95514.66;;;20.41
78582;BMP280;67878;46.242;5.974;2023-03-01T05:57:09;95521.88;;;20.38
78582;BMP280;67878;46.242;5.974;2023-03-01T05:59:38;95521.09;;;20.44
78582;BMP280;67878;46.242;5.974;2023-03-01T06:02:03;95516.16;;;20.42
78582;BMP280;67878;46.242;5.974;2023-03-01T06:04:29;95519.34;;;20.40
78582;BMP280;67878;46.242;5.974;2023-03-01T06:06:54;95522.06;;;20.40
78582;BMP280;67878;46.242;5.974;2023-03-01T06:09:19;95523.34;;;20.51
78582;BMP280;67878;46.242;5.974;2023-03-01T06:11:47;95524.59;;;20.50
78582;BMP280;67878;46.242;5.974;2023-03-01T06:14:14;95524.84;;;20.46
78582;BMP280;67878;46.242;5.974;2023-03-01T06:16:43;95516.13;;;20.48
78582;BMP280;67878;46.242;5.974;2023-03-01T06:19:14;95524.84;;;20.46
78582;BMP280;67878;46.242;5.974;2023-03-01T06:21:45;95526.06;;;20.51
78582;BMP280;67878;46.242;5.974;2023-03-01T06:24:13;95527.03;;;20.53
78582;BMP280;67878;46.242;5.974;2023-03-01T06:26:47;95527.03;;;20.53
78582;BMP280;67878;46.242;5.974;2023-03-01T06:29:17;95523.81;;;20.49
78582;BMP280;67878;46.242;5.974;2023-03-01T06:31:44;95521.84;;;20.50
78582;BMP280;67878;46.242;5.974;2023-03-01T06:34:11;95525.56;;;20.52
78582;BMP280;67878;46.242;5.974;2023-03-01T06:36:39;95519.88;;;20.50
78582;BMP280;67878;46.242;5.974;2023-03-01T06:39:04;95523.56;;;20.53
78582;BMP280;67878;46.242;5.974;2023-03-01T06:41:37;95529.03;;;20.58
78582;BMP280;67878;46.242;5.974;2023-03-01T06:44:06;95525.56;;;20.64
78582;BMP280;67878;46.242;5.974;2023-03-01T06:46:35;95531.25;;;20.71
78582;BMP280;67878;46.242;5.974;2023-03-01T06:49:03;95528.53;;;20.71
78582;BMP280;67878;46.242;5.974;2023-03-01T06:51:37;95529.53;;;20.68
78582;BMP280;67878;46.242;5.974;2023-03-01T06:54:08;95527.28;;;20.72
78582;BMP280;67878;46.242;5.974;2023-03-01T06:56:37;95520.09;;;20.81
78582;BMP280;67878;46.242;5.974;2023-03-01T06:59:05;95522.81;;;20.75
78582;BMP280;67878;46.242;5.974;2023-03-01T07:01:34;95522.06;;;20.80
78582;BMP280;67878;46.242;5.974;2023-03-01T07:04:03;95512.38;;;20.90
78582;BMP280;67878;46.242;5.974;2023-03-01T07:06:36;95506.91;;;20.79
78582;BMP280;67878;46.242;5.974;2023-03-01T07:09:05;95508.16;;;20.89
78582;BMP280;67878;46.242;5.974;2023-03-01T07:11:32;95518.84;;;20.82
78582;BMP280;67878;46.242;5.974;2023-03-01T07:13:58;95521.81;;;20.89
78582;BMP280;67878;46.242;5.974;2023-03-01T07:16:25;95521.56;;;20.87
78582;BMP280;67878;46.242;5.974;2023-03-01T07:18:50;95525.03;;;20.93
78582;BMP280;67878;46.242;5.974;2023-03-01T07:21:15;95521.56;;;20.93
78582;BMP280;67878;46.242;5.974;2023-03-01T07:23:41;95506.66;;;20.94
78582;BMP280;67878;46.242;5.974;2023-03-01T07:26:07;95515.84;;;20.91
78582;BMP280;67878;46.242;5.974;2023-03-01T07:28:32;95525.56;;;20.86
78582;BMP280;67878;46.242;5.974;2023-03-01T07:31:03;95516.34;;;20.84
78582;BMP280;67878;46.242;5.974;2023-03-01T07:33:29;95514.88;;;20.77
78582;BMP280;67878;46.242;5.974;2023-03-01T07:36:00;95510.41;;;20.79
78582;BMP280;67878;46.242;5.974;2023-03-01T07:38:27;95513.63;;;20.78
78582;BMP280;67878;46.242;5.974;2023-03-01T07:40:54;95515.38;;;20.81
78582;BMP280;67878;46.242;5.974;2023-03-01T07:43:19;95517.84;;;20.79
78582;BMP280;67878;46.242;5.974;2023-03-01T07:45:46;95509.91;;;20.81
78582;BMP280;67878;46.242;5.974;2023-03-01T07:48:11;95514.34;;;20.84
78582;BMP280;67878;46.242;5.974;2023-03-01T07:50:36;95504.69;;;20.83
78582;BMP280;67878;46.242;5.974;2023-03-01T07:53:02;95510.66;;;20.82
78582;BMP280;67878;46.242;5.974;2023-03-01T07:55:27;95509.91;;;20.81
78582;BMP280;67878;46.242;5.974;2023-03-01T07:57:53;95503.94;;;20.83
78582;BMP280;67878;46.242;5.974;2023-03-01T08:00:18;95500.22;;;20.86
78582;BMP280;67878;46.242;5.974;2023-03-01T08:02:44;95493.75;;;20.83
78582;BMP280;67878;46.242;5.974;2023-03-01T08:05:10;95483.31;;;20.82
78582;BMP280;67878;46.242;5.974;2023-03-01T08:07:36;95490.03;;;20.86
78582;BMP280;67878;46.242;5.974;2023-03-01T08:10:01;95486.31;;;20.84
78582;BMP280;67878;46.242;5.974;2023-03-01T08:12:26;95491.50;;;20.87
78582;BMP280;67878;46.242;5.974;2023-03-01T08:14:53;95493.47;;;20.87
78582;BMP280;67878;46.242;5.974;2023-03-01T08:17:19;95497.22;;;20.89
78582;BMP280;67878;46.242;5.974;2023-03-01T08:19:44;95483.56;;;20.89
78582;BMP280;67878;46.242;5.974;2023-03-01T08:22:10;95483.06;;;20.91
78582;BMP280;67878;46.242;5.974;2023-03-01T08:24:37;95480.31;;;20.91
78582;BMP280;67878;46.242;5.974;2023-03-01T08:27:03;95481.81;;;20.92
78582;BMP280;67878;46.242;5.974;2023-03-01T08:29:33;95477.84;;;20.93
78582;BMP280;67878;46.242;5.974;2023-03-01T08:32:00;95486.78;;;20.93
78582;BMP280;67878;46.242;5.974;2023-03-01T08:34:25;95479.34;;;20.94
78582;BMP280;67878;46.242;5.974;2023-03-01T08:36:51;95481.53;;;20.95
78582;BMP280;67878;46.242;5.974;2023-03-01T08:39:19;95478.81;;;20.95
78582;BMP280;67878;46.242;5.974;2023-03-01T08:41:46;95481.81;;;20.97
78582;BMP280;67878;46.242;5.974;2023-03-01T08:44:13;95490.00;;;20.97
78582;BMP280;67878;46.242;5.974;2023-03-01T08:46:41;95490.00;;;20.97
78582;BMP280;67878;46.242;5.974;2023-03-01T08:49:11;95486.75;;;20.99
78582;BMP280;67878;46.242;5.974;2023-03-01T08:51:37;95486.75;;;20.99
78582;BMP280;67878;46.242;5.974;2023-03-01T08:54:04;95490.97;;;21.00
78582;BMP280;67878;46.242;5.974;2023-03-01T08:56:29;95487.47;;;20.99
78582;BMP280;67878;46.242;5.974;2023-03-01T08:58:55;95482.03;;;20.99
78582;BMP280;67878;46.242;5.974;2023-03-01T09:01:20;95481.28;;;20.99
78582;BMP280;67878;46.242;5.974;2023-03-01T09:03:46;95483.53;;;21.01
78582;BMP280;67878;46.242;5.974;2023-03-01T09:06:13;95488.78;;;20.98
78582;BMP280;67878;46.242;5.974;2023-03-01T09:08:41;95476.81;;;21.02
78582;BMP280;67878;46.242;5.974;2023-03-01T09:11:10;95480.28;;;21.02
78582;BMP280;67878;46.242;5.974;2023-03-01T09:13:37;95470.13;;;21.03
78582;BMP280;67878;46.242;5.974;2023-03-01T09:16:05;95474.81;;;21.02
78582;BMP280;67878;46.242;5.974;2023-03-01T09:18:31;95469.66;;;20.98
78582;BMP280;67878;46.242;5.974;2023-03-01T09:21:10;95464.41;;;21.01
78582;BMP280;67878;46.242;5.974;2023-03-01T09:23:42;95464.13;;;21.04
78582;BMP280;67878;46.242;5.974;2023-03-01T09:26:12;95463.41;;;21.04
78582;BMP280;67878;46.242;5.974;2023-03-01T09:28:40;95468.63;;;21.02
78582;BMP280;67878;46.242;5.974;2023-03-01T09:31:09;95468.63;;;21.02
78582;BMP280;67878;46.242;5.974;2023-03-01T09:33:38;95470.84;;;21.03
78582;BMP280;67878;46.242;5.974;2023-03-01T09:36:06;95480.06;;;21.00
78582;BMP280;67878;46.242;5.974;2023-03-01T09:38:32;95482.53;;;21.04
78582;BMP280;67878;46.242;5.974;2023-03-01T09:41:00;95477.56;;;21.02
78582;BMP280;67878;46.242;5.974;2023-03-01T09:43:35;95481.28;;;21.05
78582;BMP280;67878;46.242;5.974;2023-03-01T09:46:09;95472.06;;;21.08
78582;BMP280;67878;46.242;5.974;2023-03-01T09:48:44;95477.31;;;21.06
78582;BMP280;67878;46.242;5.974;2023-03-01T09:51:18;95470.59;;;21.07
78582;BMP280;67878;46.242;5.974;2023-03-01T09:53:44;95472.59;;;21.06
78582;BMP280;67878;46.242;5.974;2023-03-01T09:56:24;95472.81;;;21.08
78582;BMP280;67878;46.242;5.974;2023-03-01T10:01:40;95470.34;;;21.05
78582;BMP280;67878;46.242;5.974;2023-03-01T10:09:37;95456.41;;;21.08
78582;BMP280;67878;46.242;5.974;2023-03-01T10:12:08;95449.50;;;21.07
78582;BMP280;67878;46.242;5.974;2023-03-01T10:14:42;95450.47;;;21.10
78582;BMP280;67878;46.242;5.974;2023-03-01T10:19:46;95454.69;;;21.11
78582;BMP280;67878;46.242;5.974;2023-03-01T10:22:22;95452.44;;;21.09
78582;BMP280;67878;46.242;5.974;2023-03-01T10:24:51;95447.47;;;21.08
78582;BMP280;67878;46.242;5.974;2023-03-01T10:27:24;95461.63;;;21.12
78582;BMP280;67878;46.242;5.974;2023-03-01T10:29:56;95458.19;;;21.11
78582;BMP280;67878;46.242;5.974;2023-03-01T10:32:24;95460.16;;;21.11
78582;BMP280;67878;46.242;5.974;2023-03-01T10:34:50;95457.41;;;21.11
78582;BMP280;67878;46.242;5.974;2023-03-01T10:37:18;95450.19;;;21.13
78582;BMP280;67878;46.242;5.974;2023-03-01T10:40:08;95446.22;;;21.14
78582;BMP280;67878;46.242;5.974;2023-03-01T10:42:37;95441.25;;;21.13
78582;BMP280;67878;46.242;5.974;2023-03-01T10:45:42;95442.00;;;21.13
78582;BMP280;67878;46.242;5.974;2023-03-01T10:48:17;95446.72;;;21.13
78582;BMP280;67878;46.242;5.974;2023-03-01T10:50:50;95441.78;;;21.11
78582;BMP280;67878;46.242;5.974;2023-03-01T10:55:59;95444.25;;;21.15
78582;BMP280;67878;46.242;5.974;2023-03-01T10:58:25;95436.53;;;21.13
78582;BMP280;67878;46.242;5.974;2023-03-01T11:00:52;95437.03;;;21.12
78582;BMP280;67878;46.242;5.974;2023-03-01T11:03:23;95433.03;;;21.18
78582;BMP280;67878;46.242;5.974;2023-03-01T11:05:58;95429.09;;;21.14
78582;BMP280;67878;46.242;5.974;2023-03-01T11:08:44;95431.81;;;21.14
78582;BMP280;67878;46.242;5.974;2023-03-01T11:11:33;95429.09;;;21.14
78582;BMP280;67878;46.242;5.974;2023-03-01T11:14:07;95416.91;;;21.15
78582;BMP280;67878;46.242;5.974;2023-03-01T11:16:38;95416.91;;;21.15
78582;BMP280;67878;46.242;5.974;2023-03-01T11:21:55;95422.38;;;21.15
78582;BMP280;67878;46.242;5.974;2023-03-01T11:24:29;95413.22;;;20.95
78582;BMP280;67878;46.242;5.974;2023-03-01T11:26:55;95410.69;;;21.14
78582;BMP280;67878;46.242;5.974;2023-03-01T11:30:00;95410.44;;;21.18
78582;BMP280;67878;46.242;5.974;2023-03-01T11:32:32;95407.44;;;21.16
78582;BMP280;67878;46.242;5.974;2023-03-01T11:35:13;95407.94;;;21.20
78582;BMP280;67878;46.242;5.974;2023-03-01T11:37:40;95402.69;;;21.28
78582;BMP280;67878;46.242;5.974;2023-03-01T11:40:24;95399.47;;;21.24
78582;BMP280;67878;46.242;5.974;2023-03-01T11:43:09;95401.19;;;21.21
78582;BMP280;67878;46.242;5.974;2023-03-01T11:49:04;95390.94;;;21.39
78582;BMP280;67878;46.242;5.974;2023-03-01T12:00:17;95366.88;;;21.31
78582;BMP280;67878;46.242;5.974;2023-03-01T12:05:53;95359.91;;;21.30
78582;BMP280;67878;46.242;5.974;2023-03-01T12:17:18;95362.16;;;21.32
78582;BMP280;67878;46.242;5.974;2023-03-01T12:20:09;95359.34;;;21.37
78582;BMP280;67878;46.242;5.974;2023-03-01T12:31:17;95346.94;;;21.36
78582;BMP280;67878;46.242;5.974;2023-03-01T12:50:24;95348.03;;;21.22
78582;BMP280;67878;46.242;5.974;2023-03-01T12:52:56;95340.59;;;21.23
78582;BMP280;67878;46.242;5.974;2023-03-01T12:55:29;95345.28;;;21.22
78582;BMP280;67878;46.242;5.974;2023-03-01T13:03:22;95335.84;;;21.23
78582;BMP280;67878;46.242;5.974;2023-03-01T13:06:34;95338.84;;;21.20
78582;BMP280;67878;46.242;5.974;2023-03-01T13:11:57;95329.66;;;21.17
78582;BMP280;67878;46.242;5.974;2023-03-01T13:16:52;95321.00;;;21.13
78582;BMP280;67878;46.242;5.974;2023-03-01T13:19:19;95318.72;;;21.17
78582;BMP280;67878;46.242;5.974;2023-03-01T13:21:46;95308.84;;;21.14
78582;BMP280;67878;46.242;5.974;2023-03-01T13:24:29;95308.84;;;21.14
78582;BMP280;67878;46.242;5.974;2023-03-01T13:32:35;95322.22;;;21.12
78582;BMP280;67878;46.242;5.974;2023-03-01T13:37:51;95315.31;;;21.11
78582;BMP280;67878;46.242;5.974;2023-03-01T13:42:47;95308.63;;;21.06
78582;BMP280;67878;46.242;5.974;2023-03-01T13:45:20;95315.06;;;21.09
78582;BMP280;67878;46.242;5.974;2023-03-01T13:47:47;95313.84;;;21.10
78582;BMP280;67878;46.242;5.974;2023-03-01T13:50:25;95317.03;;;21.08
78582;BMP280;67878;46.242;5.974;2023-03-01T13:55:36;95316.06;;;21.06
78582;BMP280;67878;46.242;5.974;2023-03-01T13:58:13;95314.84;;;21.07
78582;BMP280;67878;46.242;5.974;2023-03-01T14:00:40;95309.88;;;21.05
78582;BMP280;67878;46.242;5.974;2023-03-01T14:03:16;95307.63;;;21.04
78582;BMP280;67878;46.242;5.974;2023-03-01T14:05:50;95312.59;;;20.99
78582;BMP280;67878;46.242;5.974;2023-03-01T14:08:24;95302.97;;;20.98
78582;BMP280;67878;46.242;5.974;2023-03-01T14:19:26;95295.47;;;20.99
78582;BMP280;67878;46.242;5.974;2023-03-01T14:24:39;95297.00;;;20.94
78582;BMP280;67878;46.242;5.974;2023-03-01T14:27:12;95299.75;;;20.94
78582;BMP280;67878;46.242;5.974;2023-03-01T14:29:39;95298.28;;;20.93
78582;BMP280;67878;46.242;5.974;2023-03-01T14:32:26;95301.00;;;20.93
78582;BMP280;67878;46.242;5.974;2023-03-01T14:34:51;95305.22;;;20.94
78582;BMP280;67878;46.242;5.974;2023-03-01T14:37:25;95308.94;;;20.91
78582;BMP280;67878;46.242;5.974;2023-03-01T14:39:51;95315.66;;;20.90
78582;BMP280;67878;46.242;5.974;2023-03-01T14:42:18;95310.19;;;20.90
78582;BMP280;67878;46.242;5.974;2023-03-01T14:44:46;95311.44;;;20.89
78582;BMP280;67878;46.242;5.974;2023-03-01T14:47:20;95308.72;;;20.89
78582;BMP280;67878;46.242;5.974;2023-03-01T14:49:53;95296.31;;;20.88
78582;BMP280;67878;46.242;5.974;2023-03-01T14:52:21;95303.00;;;20.87
78582;BMP280;67878;46.242;5.974;2023-03-01T14:54:50;95300.03;;;20.85
78582;BMP280;67878;46.242;5.974;2023-03-01T14:57:25;95302.78;;;20.85
78582;BMP280;67878;46.242;5.974;2023-03-01T14:59:57;95299.03;;;20.83
78582;BMP280;67878;46.242;5.974;2023-03-01T15:02:25;95290.84;;;20.83
78582;BMP280;67878;46.242;5.974;2023-03-01T15:04:52;95291.38;;;20.81
78582;BMP280;67878;46.242;5.974;2023-03-01T15:07:18;95290.38;;;20.78
78582;BMP280;67878;46.242;5.974;2023-03-01T15:09:43;95290.38;;;20.78
78582;BMP280;67878;46.242;5.974;2023-03-01T15:12:35;95289.66;;;20.78
78582;BMP280;67878;46.242;5.974;2023-03-01T15:15:01;95300.34;;;20.76
78582;BMP280;67878;46.242;5.974;2023-03-01T15:17:36;95302.03;;;20.79
78582;BMP280;67878;46.242;5.974;2023-03-01T15:20:06;95308.53;;;20.76
78582;BMP280;67878;46.242;5.974;2023-03-01T15:22:32;95305.31;;;20.77
78582;BMP280;67878;46.242;5.974;2023-03-01T15:24:57;95310.53;;;20.75
78582;BMP280;67878;46.242;5.974;2023-03-01T15:27:24;95316.00;;;20.75
78582;BMP280;67878;46.242;5.974;2023-03-01T15:29:59;95309.03;;;20.74
78582;BMP280;67878;46.242;5.974;2023-03-01T15:32:36;95318.44;;;20.73
78582;BMP280;67878;46.242;5.974;2023-03-01T15:35:39;95329.34;;;20.79
78582;BMP280;67878;46.242;5.974;2023-03-01T15:40:49;95332.63;;;20.72
78582;BMP280;67878;46.242;5.974;2023-03-01T15:43:39;95332.63;;;20.72
78582;BMP280;67878;46.242;5.974;2023-03-01T15:46:11;95334.59;;;20.71
78582;BMP280;67878;46.242;5.974;2023-03-01T15:48:44;95338.09;;;20.72
78582;BMP280;67878;46.242;5.974;2023-03-01T15:51:13;95338.38;;;20.68
78582;BMP280;67878;46.242;5.974;2023-03-01T15:53:39;95332.16;;;20.68
78582;BMP280;67878;46.242;5.974;2023-03-01T15:56:05;95321.72;;;20.66
78582;BMP280;67878;46.242;5.974;2023-03-01T15:58:32;95321.25;;;20.68
78582;BMP280;67878;46.242;5.974;2023-03-01T16:00:58;95314.28;;;20.67
78582;BMP280;67878;46.242;5.974;2023-03-01T16:03:24;95309.81;;;20.64
78582;BMP280;67878;46.242;5.974;2023-03-01T16:05:49;95307.59;;;20.62
78582;BMP280;67878;46.242;5.974;2023-03-01T16:08:16;95307.09;;;20.64
78582;BMP280;67878;46.242;5.974;2023-03-01T16:10:42;95306.09;;;20.61
78582;BMP280;67878;46.242;5.974;2023-03-01T16:13:09;95303.88;;;20.59
78582;BMP280;67878;46.242;5.974;2023-03-01T16:15:35;95308.09;;;20.60
78582;BMP280;67878;46.242;5.974;2023-03-01T16:18:01;95301.91;;;20.60
78582;BMP280;67878;46.242;5.974;2023-03-01T16:20:28;95314.81;;;20.59